Time;durP1;ratioP1;P1;durP2;ratioP2;P2;SDS_P1;SDS_P2;PMS_P1;PMS_P2;Temp;Humidity;BMP_temperature;BMP_pressure;BME280_temperature;BME280_humidity;BME280_pressure;Samples;Min_cycle;Max_cycle;Signal;HPM_P1;HPM_P2
2022/10/04 00:01:50;;;;;;;5.67;4.63;;;13.10;70.20;;;-142.21;100.00;112049.66;5111352;28;20430;-72
2022/10/04 00:04:26;;;;;;;7.00;5.23;;;13.10;70.00;;;-142.21;100.00;112049.66;5111422;28;20438;-71
2022/10/04 00:07:05;;;;;;;9.27;4.60;;;13.10;70.00;;;-142.21;100.00;112049.66;5111312;28;20467;-72
2022/10/04 00:09:41;;;;;;;6.00;4.30;;;13.10;69.80;;;-142.21;100.00;112049.66;5110961;28;20432;-71
2022/10/04 00:12:22;;;;;;;7.33;4.50;;;13.10;69.80;;;-142.21;100.00;112049.66;5111110;28;20945;-72
2022/10/04 00:14:53;;;;;;;7.10;4.50;;;13.00;69.80;;;-142.21;100.00;112049.66;5093717;28;20463;-71
2022/10/04 00:17:26;;;;;;;6.67;4.80;;;13.00;69.80;;;-142.21;100.00;112049.66;5110588;28;20430;-72
2022/10/04 00:19:56;;;;;;;8.97;5.17;;;13.00;70.10;;;-142.21;100.00;112049.66;5111158;28;20461;-71
2022/10/04 00:22:26;;;;;;;6.63;4.70;;;13.00;70.10;;;-142.21;100.00;112049.66;5110525;28;20517;-71
2022/10/04 00:25:22;;;;;;;5.03;4.37;;;13.00;70.40;;;-142.21;100.00;112049.66;5111388;28;20774;-70
2022/10/04 00:28:31;;;;;;;5.70;4.30;;;12.90;70.70;;;-142.21;100.00;112049.66;5087550;28;20438;-72
2022/10/04 00:31:18;;;;;;;9.33;4.67;;;12.90;70.80;;;-142.21;100.00;112049.66;5099529;28;20483;-72
2022/10/04 00:33:47;;;;;;;5.63;4.20;;;12.90;71.00;;;-142.21;100.00;112049.66;5115191;28;20521;-72
2022/10/04 00:36:54;;;;;;;4.90;4.10;;;12.80;70.90;;;-142.21;100.00;112049.66;5114443;28;20532;-71
2022/10/04 00:39:46;;;;;;;5.47;4.40;;;12.90;71.50;;;-142.21;100.00;112049.66;5019412;28;20444;-71
2022/10/04 00:42:40;;;;;;;5.20;4.17;;;12.80;71.40;;;-142.21;100.00;112049.66;5032179;28;20453;-71
2022/10/04 00:45:18;;;;;;;5.67;4.57;;;12.80;71.40;;;-142.21;100.00;112049.66;5100022;28;20520;-71
2022/10/04 00:48:18;;;;;;;5.77;4.10;;;12.80;71.30;;;-142.21;100.00;112049.66;5097136;28;20438;-74
2022/10/04 00:50:54;;;;;;;6.37;3.93;;;12.80;71.50;;;-142.21;100.00;112049.66;5093922;28;20514;-71
2022/10/04 00:53:45;;;;;;;6.67;4.17;;;12.80;71.30;;;-142.21;100.00;112049.66;5113759;28;20429;-72
2022/10/04 00:56:23;;;;;;;7.30;4.27;;;12.80;71.50;;;-142.21;100.00;112049.66;5114765;28;20441;-72
2022/10/04 00:59:22;;;;;;;5.70;4.10;;;12.80;71.60;;;-142.21;100.00;112049.66;5114605;28;20432;-72
2022/10/04 01:01:56;;;;;;;5.50;4.20;;;12.80;72.00;;;-142.21;100.00;112049.66;5114385;28;20476;-71
2022/10/04 01:04:42;;;;;;;5.13;4.03;;;12.70;71.90;;;-142.21;100.00;112049.66;5060102;28;20528;-71
2022/10/04 01:07:14;;;;;;;9.67;4.53;;;12.80;72.20;;;-142.21;100.00;112049.66;5114239;28;20440;-72
2022/10/04 01:09:52;;;;;;;7.10;4.50;;;12.80;72.10;;;-142.21;100.00;112049.66;5113158;28;20426;-72
2022/10/04 01:12:44;;;;;;;4.80;4.27;;;12.80;72.30;;;-142.21;100.00;112049.66;5114444;28;20434;-72
2022/10/04 01:15:26;;;;;;;6.07;4.57;;;12.70;72.50;;;-142.21;100.00;112049.66;5110689;28;20477;-71
2022/10/04 01:18:14;;;;;;;5.20;4.30;;;12.80;72.70;;;-142.21;100.00;112049.66;5089896;28;20440;-72
2022/10/04 01:20:53;;;;;;;8.37;5.43;;;12.80;72.80;;;-142.21;100.00;112049.66;5075852;28;20470;-71
2022/10/04 01:23:39;;;;;;;7.47;4.73;;;12.80;72.80;;;-142.21;100.00;112049.66;5108841;28;20941;-71
2022/10/04 01:26:38;;;;;;;8.60;4.83;;;12.80;72.80;;;-142.21;100.00;112049.66;5114060;28;20430;-72
2022/10/04 01:29:13;;;;;;;8.13;5.00;;;12.70;72.70;;;-142.21;100.00;112049.66;5099321;28;20454;-73
2022/10/04 01:31:44;;;;;;;5.90;4.80;;;12.70;72.60;;;-142.21;100.00;112049.66;5095373;28;20567;-73
2022/10/04 01:34:15;;;;;;;8.37;4.97;;;12.70;72.70;;;-142.21;100.00;112049.66;5113461;28;20448;-73
2022/10/04 01:36:46;;;;;;;7.30;4.77;;;12.80;72.80;;;-142.21;100.00;112049.66;5112879;28;20528;-72
2022/10/04 01:39:16;;;;;;;8.77;5.00;;;12.70;72.80;;;-142.21;100.00;112049.66;5113335;28;20475;-72
2022/10/04 01:41:54;;;;;;;8.07;4.80;;;12.70;73.60;;;-142.21;100.00;112049.66;5112759;28;20466;-71
2022/10/04 01:44:31;;;;;;;7.00;5.13;;;12.80;72.80;;;-142.21;100.00;112049.66;5113681;28;20444;-71
2022/10/04 01:47:05;;;;;;;7.67;5.43;;;12.80;72.80;;;-142.21;100.00;112049.66;5113440;28;20433;-71
2022/10/04 01:49:38;;;;;;;8.37;5.60;;;12.70;72.80;;;-142.21;100.00;112049.66;5112974;28;20525;-71
2022/10/04 01:52:15;;;;;;;7.17;5.17;;;12.70;72.70;;;-142.21;100.00;112049.66;5113570;28;20517;-71
2022/10/04 01:54:49;;;;;;;6.90;5.27;;;12.70;72.80;;;-142.21;100.00;112049.66;5112846;28;20765;-71
2022/10/04 01:57:21;;;;;;;6.43;4.93;;;12.70;72.90;;;-142.21;100.00;112049.66;5113435;28;20438;-71
2022/10/04 01:59:57;;;;;;;12.40;5.60;;;12.70;73.00;;;-142.21;100.00;112049.66;5112879;28;20449;-71
2022/10/04 02:02:34;;;;;;;7.03;5.23;;;12.70;73.00;;;-142.21;100.00;112049.66;5113087;28;20429;-71
2022/10/04 02:05:05;;;;;;;8.20;5.13;;;12.70;72.80;;;-142.21;100.00;112049.66;5110090;28;20442;-72
2022/10/04 02:07:35;;;;;;;6.87;5.03;;;12.70;72.90;;;-142.21;100.00;112049.66;5113044;28;20434;-72
2022/10/04 02:10:09;;;;;;;7.30;5.27;;;12.70;72.80;;;-142.21;100.00;112049.66;5113504;28;20445;-72
2022/10/04 02:12:37;;;;;;;6.50;5.00;;;12.70;72.80;;;-142.21;100.00;112049.66;5112718;28;20442;-72
2022/10/04 02:15:10;;;;;;;8.53;5.03;;;12.70;72.70;;;-142.21;100.00;112049.66;5113471;28;20450;-71
2022/10/04 02:17:42;;;;;;;6.77;5.23;;;12.70;72.80;;;-142.21;100.00;112049.66;5111777;28;20558;-70
2022/10/04 02:20:16;;;;;;;10.07;5.70;;;12.70;72.80;;;-142.21;100.00;112049.66;5112882;28;20433;-72
2022/10/04 02:22:46;;;;;;;7.40;5.23;;;12.70;72.80;;;-142.21;100.00;112049.66;5092277;28;20427;-72
2022/10/04 02:25:18;;;;;;;8.30;5.60;;;12.70;73.00;;;-142.21;100.00;112049.66;5110854;28;20921;-72
2022/10/04 02:27:46;;;;;;;7.30;5.03;;;12.70;72.90;;;-142.21;100.00;112049.66;5059895;28;20442;-72
2022/10/04 02:30:13;;;;;;;8.57;5.50;;;12.60;72.80;;;-142.21;100.00;112049.66;5112122;28;20482;-72
2022/10/04 02:32:56;;;;;;;7.47;5.97;;;12.60;73.10;;;-142.21;100.00;112049.66;5111573;28;20520;-72
2022/10/04 02:35:26;;;;;;;7.20;5.40;;;12.60;73.30;;;-142.21;100.00;112049.66;5113011;28;20806;-72
2022/10/04 02:38:07;;;;;;;6.87;5.03;;;12.60;73.30;;;-142.21;100.00;112049.66;5112724;28;20441;-71
2022/10/04 02:40:47;;;;;;;8.13;5.10;;;12.60;73.30;;;-142.21;100.00;112049.66;5109275;28;20471;-72
2022/10/04 02:43:22;;;;;;;13.47;5.63;;;12.60;73.10;;;-142.21;100.00;112049.66;5112503;28;20447;-71
2022/10/04 02:45:56;;;;;;;10.07;5.03;;;12.60;73.00;;;-142.21;100.00;112049.66;5094354;28;20425;-72
2022/10/04 02:48:38;;;;;;;10.97;5.03;;;12.60;72.80;;;-142.21;100.00;112049.66;5060145;28;20449;-72
2022/10/04 02:51:26;;;;;;;7.90;5.23;;;12.60;73.60;;;-142.21;100.00;112049.66;5112287;28;20421;-72
2022/10/04 02:54:05;;;;;;;10.37;5.70;;;12.60;73.20;;;-142.21;100.00;112049.66;5098979;28;20442;-72
2022/10/04 02:56:36;;;;;;;7.43;5.87;;;12.50;72.80;;;-142.21;100.00;112049.66;5111796;28;20442;-71
2022/10/04 02:59:06;;;;;;;8.07;5.37;;;12.50;72.90;;;-142.21;100.00;112049.66;5112036;28;20940;-72
2022/10/04 03:01:52;;;;;;;6.13;5.37;;;12.50;72.80;;;-142.21;100.00;112049.66;5110850;28;20485;-72
2022/10/04 03:04:23;;;;;;;6.60;5.40;;;12.50;72.80;;;-142.21;100.00;112049.66;5112436;28;20547;-73
2022/10/04 03:06:52;;;;;;;6.37;4.53;;;12.50;73.00;;;-142.21;100.00;112049.66;5111812;28;20426;-71
2022/10/04 03:09:22;;;;;;;7.70;4.63;;;12.50;72.60;;;-142.21;100.00;112049.66;5111553;28;20445;-71
2022/10/04 03:11:52;;;;;;;5.73;5.10;;;12.50;72.20;;;-142.21;100.00;112049.66;5111554;28;20800;-71
2022/10/04 03:14:24;;;;;;;7.37;5.27;;;12.40;71.80;;;-142.21;100.00;112049.66;5111518;28;20453;-71
2022/10/04 03:16:55;;;;;;;5.43;4.67;;;12.50;72.00;;;-142.21;100.00;112049.66;5111339;28;20440;-72
2022/10/04 03:19:26;;;;;;;10.20;5.13;;;12.40;72.00;;;-142.21;100.00;112049.66;5097105;28;20451;-72
2022/10/04 03:21:59;;;;;;;5.33;4.70;;;12.40;72.20;;;-142.21;100.00;112049.66;5111292;28;20473;-71
2022/10/04 03:24:32;;;;;;;7.57;5.33;;;12.40;72.00;;;-142.21;100.00;112049.66;5096870;28;20517;-72
2022/10/04 03:27:06;;;;;;;10.20;5.20;;;12.30;71.60;;;-142.21;100.00;112049.66;5061226;28;20442;-72
2022/10/04 03:29:34;;;;;;;7.63;5.43;;;12.20;72.10;;;-142.21;100.00;112049.66;5092467;28;20469;-73
2022/10/04 03:32:05;;;;;;;6.53;4.87;;;12.10;71.90;;;-142.21;100.00;112049.66;5111845;28;20441;-72
2022/10/04 03:34:38;;;;;;;9.77;5.23;;;12.10;72.30;;;-142.21;100.00;112049.66;5110921;28;20533;-72
2022/10/04 03:37:12;;;;;;;6.00;4.57;;;12.10;72.60;;;-142.21;100.00;112049.66;5094096;28;20436;-73
2022/10/04 03:39:45;;;;;;;8.60;4.93;;;12.10;72.30;;;-142.21;100.00;112049.66;5110991;28;20519;-71
2022/10/04 03:42:18;;;;;;;5.20;4.67;;;12.00;72.00;;;-142.21;100.00;112049.66;5111435;28;20476;-72
2022/10/04 03:44:48;;;;;;;6.60;5.20;;;12.00;71.90;;;-142.21;100.00;112049.66;5110798;28;20443;-72
2022/10/04 03:47:21;;;;;;;8.20;4.93;;;12.10;71.80;;;-142.21;100.00;112049.66;5059858;28;20956;-72
2022/10/04 03:49:51;;;;;;;5.70;4.73;;;12.00;72.00;;;-142.21;100.00;112049.66;5111389;28;20516;-72
2022/10/04 03:52:23;;;;;;;6.73;4.53;;;12.10;72.10;;;-142.21;100.00;112049.66;5111897;28;20481;-72
2022/10/04 03:54:55;;;;;;;4.80;4.37;;;12.10;71.90;;;-142.21;100.00;112049.66;5111485;28;20795;-73
2022/10/04 03:57:23;;;;;;;9.27;4.87;;;12.00;71.60;;;-142.21;100.00;112049.66;5094057;28;20426;-71
2022/10/04 03:59:51;;;;;;;6.03;4.87;;;11.90;71.30;;;-142.21;100.00;112049.66;5110626;28;20471;-72
2022/10/04 04:02:32;;;;;;;8.73;4.70;;;11.90;71.20;;;-142.21;100.00;112049.66;5111494;28;20488;-72
2022/10/04 04:05:14;;;;;;;7.13;4.70;;;11.90;71.70;;;-142.21;100.00;112049.66;5079774;28;20814;-71
2022/10/04 04:07:47;;;;;;;4.97;4.43;;;11.90;71.50;;;-142.21;100.00;112049.66;5115470;28;20429;-71
2022/10/04 04:10:23;;;;;;;7.67;4.43;;;11.90;71.50;;;-142.21;100.00;112049.66;5115801;28;20421;-72
2022/10/04 04:12:59;;;;;;;5.63;5.07;;;11.80;71.30;;;-142.21;100.00;112049.66;5064654;28;20452;-72
2022/10/04 04:15:30;;;;;;;8.27;4.87;;;11.80;71.30;;;-142.21;100.00;112049.66;5115565;28;20444;-71
2022/10/04 04:18:03;;;;;;;5.87;4.70;;;11.70;71.40;;;-142.21;100.00;112049.66;5103265;28;20479;-72
2022/10/04 04:20:35;;;;;;;7.27;4.60;;;11.80;71.40;;;-142.21;100.00;112049.66;5115292;28;20442;-72
2022/10/04 04:23:11;;;;;;;6.67;4.50;;;11.80;71.20;;;-142.21;100.00;112049.66;5115369;28;20944;-72
2022/10/04 04:25:42;;;;;;;9.00;6.00;;;11.70;71.00;;;-142.21;100.00;112049.66;5114456;28;20958;-72
2022/10/04 04:28:26;;;;;;;6.63;5.17;;;11.70;71.10;;;-142.21;100.00;112049.66;5114707;28;20436;-72
2022/10/04 04:31:00;;;;;;;6.00;5.00;;;11.80;71.10;;;-142.21;100.00;112049.66;5113643;28;20577;-71
2022/10/04 04:33:37;;;;;;;9.13;5.40;;;11.70;70.90;;;-142.21;100.00;112049.66;5115057;28;20525;-72
2022/10/04 04:36:10;;;;;;;9.40;5.10;;;11.70;71.10;;;-142.21;100.00;112049.66;5115446;28;20433;-72
2022/10/04 04:39:32;;;;;;;5.27;4.77;;;11.70;71.00;;;-142.21;100.00;112049.66;5098375;28;20529;-72
2022/10/04 04:41:29;;;;;;;5.93;4.50;;;11.70;70.90;;;-142.21;100.00;112049.66;5114049;28;20481;-72
2022/10/04 04:43:57;;;;;;;7.30;5.70;;;11.70;71.00;;;-142.21;100.00;112049.66;5104610;28;20446;-72
2022/10/04 04:46:25;;;;;;;6.93;4.90;;;11.60;71.60;;;-142.21;100.00;112049.66;5115459;28;20782;-71
2022/10/04 04:49:01;;;;;;;7.90;4.37;;;11.50;70.90;;;-142.21;100.00;112049.66;5113985;28;20937;-72
2022/10/04 04:51:32;;;;;;;10.30;4.60;;;11.60;71.00;;;-142.21;100.00;112049.66;5114562;28;20517;-71
2022/10/04 04:54:03;;;;;;;6.03;4.50;;;11.50;71.00;;;-142.21;100.00;112049.66;5114303;28;20929;-71
2022/10/04 04:56:31;;;;;;;5.37;4.60;;;11.50;70.90;;;-142.21;100.00;112049.66;5114438;28;20429;-71
2022/10/04 04:59:07;;;;;;;5.07;4.03;;;11.50;71.40;;;-142.21;100.00;112049.66;5113986;28;20445;-71
2022/10/04 05:01:41;;;;;;;8.40;4.63;;;11.50;71.20;;;-142.21;100.00;112049.66;5114335;28;20469;-72
2022/10/04 05:04:21;;;;;;;6.73;4.80;;;11.50;70.80;;;-142.21;100.00;112049.66;5114317;28;20813;-72
2022/10/04 05:07:01;;;;;;;6.80;4.57;;;11.50;70.80;;;-142.21;100.00;112049.66;5114054;28;20426;-71
2022/10/04 05:09:32;;;;;;;4.50;4.10;;;11.40;70.70;;;-142.21;100.00;112049.66;5114611;28;20537;-72
2022/10/04 05:12:08;;;;;;;8.33;4.50;;;11.40;70.80;;;-142.21;100.00;112049.66;5113822;28;20421;-72
2022/10/04 05:14:40;;;;;;;8.33;4.80;;;11.40;70.80;;;-142.21;100.00;112049.66;5113387;28;20449;-71
2022/10/04 05:17:08;;;;;;;5.90;4.27;;;11.40;71.00;;;-142.21;100.00;112049.66;5114011;28;20440;-72
2022/10/04 05:19:40;;;;;;;6.17;4.50;;;11.40;70.80;;;-142.21;100.00;112049.66;5114066;28;20452;-70
2022/10/04 05:22:12;;;;;;;7.13;4.23;;;11.40;70.90;;;-142.21;100.00;112049.66;5113916;28;20470;-72
2022/10/04 05:24:42;;;;;;;8.63;4.60;;;11.30;71.00;;;-142.21;100.00;112049.66;5113301;28;20917;-72
2022/10/04 05:27:17;;;;;;;4.70;4.07;;;11.40;71.10;;;-142.21;100.00;112049.66;5114020;28;20825;-72
2022/10/04 05:30:02;;;;;;;5.77;4.37;;;11.30;71.10;;;-142.21;100.00;112049.66;5113314;28;20844;-71
2022/10/04 05:32:48;;;;;;;6.70;4.27;;;11.30;70.90;;;-142.21;100.00;112049.66;5108311;28;20452;-72
2022/10/04 05:35:18;;;;;;;4.90;4.37;;;11.30;70.90;;;-142.21;100.00;112049.66;5097056;28;20525;-72
2022/10/04 05:38:07;;;;;;;6.37;4.60;;;11.30;70.90;;;-142.21;100.00;112049.66;5113633;28;20481;-72
2022/10/04 05:40:50;;;;;;;7.17;4.30;;;11.30;70.80;;;-142.21;100.00;112049.66;5093204;28;20423;-71
2022/10/04 05:43:35;;;;;;;7.97;4.40;;;11.30;71.00;;;-142.21;100.00;112049.66;5097363;28;20992;-72
2022/10/04 05:46:28;;;;;;;6.20;4.03;;;11.30;71.10;;;-142.21;100.00;112049.66;5113380;28;20524;-72
2022/10/04 05:49:12;;;;;;;10.20;5.20;;;11.30;71.40;;;-142.21;100.00;112049.66;5112905;28;20457;-71
2022/10/04 05:51:50;;;;;;;6.50;4.80;;;11.30;71.50;;;-142.21;100.00;112049.66;5113127;28;20426;-71
2022/10/04 05:54:23;;;;;;;9.53;4.67;;;11.30;71.80;;;-142.21;100.00;112049.66;5113405;28;20516;-71
2022/10/04 05:57:36;;;;;;;5.67;4.20;;;11.30;71.80;;;-142.21;100.00;112049.66;5113092;28;20513;-70
2022/10/04 06:00:16;;;;;;;5.17;4.33;;;11.30;72.00;;;-142.21;100.00;112049.66;5104526;28;20457;-71
2022/10/04 06:03:24;;;;;;;6.27;4.80;;;11.30;71.80;;;-142.21;100.00;112049.66;5095014;28;20461;-72
2022/10/04 06:05:55;;;;;;;8.47;6.47;;;11.40;71.80;;;-142.21;100.00;112049.66;5091246;28;20446;-72
2022/10/04 06:08:50;;;;;;;7.53;5.60;;;11.40;71.80;;;-142.21;100.00;112049.66;5100147;28;21008;-72
2022/10/04 06:11:41;;;;;;;4.57;4.07;;;11.40;72.00;;;-142.21;100.00;112049.66;5095374;28;20468;-72
2022/10/04 06:14:53;;;;;;;6.37;3.87;;;11.40;72.30;;;-142.21;100.00;112049.66;5113216;28;20473;-72
2022/10/04 06:17:50;;;;;;;6.07;4.20;;;11.30;72.10;;;-142.21;100.00;112049.66;5113164;28;20809;-71
2022/10/04 06:21:08;;;;;;;7.77;4.57;;;11.30;73.20;;;-142.21;100.00;112049.66;5093030;28;20518;-71
2022/10/04 06:23:48;;;;;;;6.27;4.33;;;11.30;72.70;;;-142.21;100.00;112049.66;5100920;28;20446;-71
2022/10/04 06:26:24;;;;;;;5.10;4.60;;;11.30;72.70;;;-142.21;100.00;112049.66;5112961;28;20943;-71
2022/10/04 06:29:00;;;;;;;6.67;4.77;;;11.30;73.20;;;-142.21;100.00;112049.66;5111978;28;20945;-71
2022/10/04 06:32:09;;;;;;;4.57;4.17;;;11.30;73.80;;;-142.21;100.00;112049.66;5111882;28;20483;-73
2022/10/04 06:35:25;;;;;;;5.83;4.97;;;11.40;74.00;;;-142.21;100.00;112049.66;5109515;28;20940;-72
2022/10/04 06:38:34;;;;;;;5.47;4.87;;;11.50;74.50;;;-142.21;100.00;112049.66;5070390;28;20442;-71
2022/10/04 06:41:27;;;;;;;8.43;5.57;;;11.50;75.00;;;-142.21;100.00;112049.66;5112278;28;20512;-71
2022/10/04 06:44:36;;;;;;;9.60;5.23;;;11.60;75.10;;;-142.21;100.00;112049.66;5111695;28;20442;-70
2022/10/04 06:47:28;;;;;;;7.83;6.00;;;11.70;75.30;;;-142.21;100.00;112049.66;5112389;28;20890;-71
2022/10/04 06:50:13;;;;;;;7.70;6.30;;;11.80;75.20;;;-142.21;100.00;112049.66;5069511;28;20476;-71
2022/10/04 06:53:15;;;;;;;6.50;5.70;;;11.90;75.20;;;-142.21;100.00;112049.66;5091072;28;20434;-70
2022/10/04 06:56:19;;;;;;;9.47;6.33;;;12.00;75.70;;;-142.21;100.00;112049.66;5091542;28;20477;-72
2022/10/04 06:59:33;;;;;;;9.17;5.97;;;12.10;75.80;;;-142.21;100.00;112049.66;5091958;28;20483;-72
2022/10/04 07:02:11;;;;;;;7.37;6.00;;;12.10;75.00;;;-142.21;100.00;112049.66;5111505;28;20485;-71
2022/10/04 07:04:49;;;;;;;7.53;5.90;;;12.20;74.70;;;-142.21;100.00;112049.66;5109994;28;20443;-71
2022/10/04 07:07:34;;;;;;;8.20;5.70;;;12.30;75.30;;;-142.21;100.00;112049.66;5111579;28;20429;-71
2022/10/04 07:10:31;;;;;;;7.83;5.50;;;12.30;74.90;;;-142.21;100.00;112049.66;5061984;28;20819;-71
2022/10/04 07:13:21;;;;;;;6.70;5.30;;;12.40;75.00;;;-142.21;100.00;112049.66;5108883;28;20812;-73
2022/10/04 07:15:57;;;;;;;6.97;5.83;;;12.50;75.10;;;-142.21;100.00;112049.66;5110999;28;20438;-71
2022/10/04 07:18:33;;;;;;;7.30;5.73;;;12.50;75.10;;;-142.21;100.00;112049.66;5111602;28;20467;-71
2022/10/04 07:21:09;;;;;;;9.50;5.47;;;12.50;74.80;;;-142.21;100.00;112049.66;5093482;28;20842;-71
2022/10/04 07:23:47;;;;;;;9.53;5.33;;;12.60;74.90;;;-142.21;100.00;112049.66;5111755;28;20465;-71
2022/10/04 07:26:27;;;;;;;9.10;5.70;;;12.60;74.60;;;-142.21;100.00;112049.66;5095527;28;20433;-71
2022/10/04 07:29:21;;;;;;;8.17;5.87;;;12.70;74.50;;;-142.21;100.00;112049.66;5111508;28;20497;-72
2022/10/04 07:32:04;;;;;;;6.83;5.63;;;12.80;74.50;;;-142.21;100.00;112049.66;5111768;28;20432;-72
2022/10/04 07:34:39;;;;;;;7.20;5.67;;;12.90;74.10;;;-142.21;100.00;112049.66;5072680;28;20499;-71
2022/10/04 07:37:11;;;;;;;7.40;4.70;;;12.90;74.40;;;-142.21;100.00;112049.66;5091912;28;20450;-71
2022/10/04 07:39:50;;;;;;;6.50;4.87;;;13.10;74.50;;;-142.21;100.00;112049.66;5105861;28;20429;-71
2022/10/04 07:42:28;;;;;;;7.60;5.33;;;13.20;74.70;;;-142.21;100.00;112049.66;5111755;28;20553;-72
2022/10/04 07:45:17;;;;;;;6.93;5.27;;;13.30;74.50;;;-142.21;100.00;112049.66;5110992;28;20953;-71
2022/10/04 07:47:44;;;;;;;7.10;5.23;;;13.40;74.50;;;-142.21;100.00;112049.66;5108779;28;20524;-71
2022/10/04 07:50:24;;;;;;;9.13;5.60;;;13.50;74.40;;;-142.21;100.00;112049.66;5111349;28;20456;-72
2022/10/04 07:52:58;;;;;;;8.80;5.60;;;13.60;74.20;;;-142.21;100.00;112049.66;5110764;28;20473;-71
2022/10/04 07:55:41;;;;;;;7.70;5.40;;;13.60;73.40;;;-142.21;100.00;112049.66;5112006;28;20638;-72
2022/10/04 07:58:50;;;;;;;6.47;5.67;;;13.70;73.30;;;-142.21;100.00;112049.66;5111497;28;20437;-71
2022/10/04 08:01:33;;;;;;;6.37;4.67;;;13.70;73.80;;;-142.21;100.00;112049.66;5111851;28;20521;-72
2022/10/04 08:04:28;;;;;;;8.50;5.23;;;13.80;74.00;;;-142.21;100.00;112049.66;5110548;28;20470;-72
2022/10/04 08:07:00;;;;;;;8.30;5.37;;;14.00;73.80;;;-142.21;100.00;112049.66;5095825;28;20513;-71
2022/10/04 08:09:49;;;;;;;7.30;5.03;;;14.00;73.50;;;-142.21;100.00;112049.66;5111491;28;20437;-72
2022/10/04 08:12:23;;;;;;;6.47;4.60;;;14.10;74.00;;;-142.21;100.00;112049.66;5111771;28;20433;-72
2022/10/04 08:15:22;;;;;;;6.60;4.87;;;14.20;73.10;;;-142.21;100.00;112049.66;5092822;28;20429;-71
2022/10/04 08:18:05;;;;;;;6.90;4.97;;;14.30;73.20;;;-142.21;100.00;112049.66;5110649;28;20566;-72
2022/10/04 08:20:43;;;;;;;6.03;4.40;;;14.40;72.60;;;-142.21;100.00;112049.66;5110670;28;20438;-71
2022/10/04 08:23:38;;;;;;;7.33;5.17;;;14.60;72.70;;;-142.21;100.00;112049.66;5111386;28;20470;-71
2022/10/04 08:26:28;;;;;;;9.27;5.30;;;14.60;71.90;;;-142.21;100.00;112049.66;5110504;28;20468;-71
2022/10/04 08:32:13;;;;;;;5.67;4.80;;;14.90;71.80;;;-142.21;100.00;112049.66;5110799;28;20437;-71
2022/10/04 08:35:07;;;;;;;7.70;4.90;;;15.00;71.90;;;-142.21;100.00;112049.66;5110572;28;20436;-72
2022/10/04 08:37:52;;;;;;;6.20;4.77;;;15.20;72.10;;;-142.21;100.00;112049.66;5111449;28;20418;-71
2022/10/04 08:41:01;;;;;;;8.43;4.63;;;15.30;71.40;;;-142.21;100.00;112049.66;5110875;28;20937;-71
2022/10/04 08:44:34;;;;;;;6.20;4.60;;;15.50;70.70;;;-142.21;100.00;112049.66;5111125;28;20461;-71
2022/10/04 08:48:09;;;;;;;7.37;4.57;;;15.60;70.60;;;-142.21;100.00;112049.66;5070297;28;20514;-72
2022/10/04 08:51:20;;;;;;;7.90;4.50;;;15.70;70.00;;;-142.21;100.00;112049.66;5112502;28;20438;-72
2022/10/04 08:54:55;;;;;;;9.90;4.70;;;16.00;69.80;;;-142.21;100.00;112049.66;5113819;28;20490;-71
2022/10/04 08:58:04;;;;;;;5.93;4.63;;;16.10;69.40;;;-142.21;98.37;112049.66;5094637;28;20926;-71
2022/10/04 09:00:56;;;;;;;6.40;4.53;;;16.10;68.20;;;-142.21;98.96;112049.66;5114662;28;20862;-72
2022/10/04 09:04:13;;;;;;;4.97;4.47;;;16.10;68.60;;;-142.21;99.03;112049.66;5114062;28;20461;-71
2022/10/04 09:07:06;;;;;;;7.53;4.60;;;16.00;68.90;;;-142.21;100.00;112049.66;5114619;28;20910;-71
2022/10/04 11:37:53;;;;;;;4.93;3.80;;;23.30;53.20;;;-142.21;62.55;112049.66;4470045;28;21198;-73
2022/10/04 11:40:44;;;;;;;4.17;3.13;;;23.60;53.30;;;-142.21;59.03;112049.66;5103321;28;20215;-72
2022/10/04 11:43:57;;;;;;;4.67;3.20;;;23.80;52.70;;;-142.21;58.49;112049.66;5112112;28;20230;-72
2022/10/04 11:46:39;;;;;;;7.63;3.33;;;24.00;52.30;;;-142.21;55.74;112049.66;5110052;28;20250;-73
2022/10/04 11:49:34;;;;;;;4.20;2.90;;;24.10;51.60;;;-142.21;60.39;112049.66;5112276;28;20283;-72
2022/10/04 11:52:47;;;;;;;3.20;2.77;;;24.10;52.20;;;-142.21;59.30;112049.66;5110969;28;20192;-71
2022/10/04 11:56:07;;;;;;;4.40;3.00;;;24.40;52.00;;;-142.21;56.67;112049.66;5112679;28;20243;-72
2022/10/04 11:59:00;;;;;;;6.33;3.30;;;24.70;51.70;;;-142.21;57.44;112049.66;5092647;28;20234;-72
2022/10/04 12:06:03;;;;;;;3.83;3.37;;;25.00;50.60;;;-142.21;55.36;112049.66;5101605;28;20658;-72
2022/10/04 12:08:53;;;;;;;5.07;3.00;;;25.10;50.80;;;-142.21;54.11;112049.66;5112569;28;20200;-72
2022/10/04 12:15:15;;;;;;;7.93;2.90;;;25.30;50.30;;;-142.21;53.18;112049.66;5112473;28;20191;-73
2022/10/04 12:18:27;;;;;;;3.07;2.77;;;25.40;50.20;;;-142.21;50.44;112049.66;5111889;28;20203;-73
2022/10/04 12:21:46;;;;;;;3.10;2.80;;;25.50;49.20;;;-142.21;49.45;112049.66;5112310;28;20194;-73
2022/10/04 12:25:03;;;;;;;3.97;3.33;;;25.70;49.00;;;-142.21;46.81;112049.66;5081619;28;20299;-71
2022/10/04 12:28:11;;;;;;;6.30;3.13;;;25.90;48.10;;;-142.21;47.45;112049.66;5061619;28;20237;-72
2022/10/04 12:31:16;;;;;;;3.93;2.93;;;26.10;48.70;;;-142.21;46.66;112049.66;5116297;28;20196;-72
2022/10/04 12:33:52;;;;;;;3.50;2.90;;;26.30;48.10;;;-142.21;46.28;112049.66;5095732;28;20195;-73
2022/10/04 12:36:36;;;;;;;5.27;2.80;;;26.50;48.50;;;-142.21;43.83;112049.66;5105633;28;20245;-73
2022/10/04 12:39:30;;;;;;;4.63;3.10;;;26.60;47.90;;;-142.21;43.71;112049.66;5114769;28;20247;-73
2022/10/04 12:42:16;;;;;;;4.73;3.07;;;26.80;47.20;;;-142.21;41.89;112049.66;5115563;28;20195;-73
2022/10/04 12:45:14;;;;;;;4.00;2.80;;;26.90;47.20;;;-142.21;41.86;112049.66;5115945;28;20207;-73
2022/10/04 12:47:57;;;;;;;6.93;2.87;;;27.10;47.00;;;-142.21;39.70;112049.66;5106567;28;20192;-72
2022/10/04 12:50:55;;;;;;;3.40;2.57;;;27.30;46.30;;;-142.21;38.62;112049.66;5114838;28;20627;-72
2022/10/04 12:53:36;;;;;;;3.97;2.93;;;27.50;45.90;;;-142.21;37.18;112049.66;5093058;28;20201;-72
2022/10/04 12:56:20;;;;;;;2.63;2.40;;;27.60;45.70;;;-142.21;36.59;112049.66;5100199;28;20256;-72
2022/10/04 12:59:20;;;;;;;4.07;2.87;;;27.80;44.90;;;-142.21;33.88;112049.66;5095609;28;20192;-73
2022/10/04 13:02:01;;;;;;;2.83;2.53;;;28.00;43.10;;;-142.21;32.37;112049.66;5109785;28;20275;-73
2022/10/04 13:04:37;;;;;;;4.27;2.70;;;28.20;44.30;;;-142.21;30.27;112049.66;5067442;28;20228;-72
2022/10/04 13:07:53;;;;;;;6.37;2.57;;;28.30;43.40;;;-142.21;29.17;112049.66;5114511;28;20219;-73
2022/10/04 13:10:52;;;;;;;5.03;3.00;;;28.50;43.00;;;-142.21;28.00;112049.66;5097681;28;20208;-73
2022/10/04 13:14:18;;;;;;;3.17;2.80;;;28.70;42.80;;;-142.21;27.95;112049.66;5115278;28;20218;-73
2022/10/04 13:16:56;;;;;;;5.37;2.57;;;28.80;43.00;;;-142.21;27.21;112049.66;5032594;28;20291;-73
2022/10/04 13:19:38;;;;;;;4.43;2.80;;;29.10;43.40;;;-142.21;26.25;112049.66;5062501;28;20205;-73
2022/10/04 13:22:31;;;;;;;4.33;2.80;;;29.30;42.70;;;-142.21;25.49;112049.66;5114782;28;20193;-73
2022/10/04 13:25:24;;;;;;;4.53;3.27;;;29.70;41.30;;;-142.21;24.84;112049.66;5114680;28;20731;-73
2022/10/04 13:28:01;;;;;;;4.63;2.90;;;29.90;40.60;;;-142.21;24.84;112049.66;5095159;28;20184;-72
2022/10/04 13:30:45;;;;;;;4.73;3.00;;;30.20;41.00;;;-142.21;24.61;112049.66;5098042;28;20215;-73
2022/10/04 13:33:29;;;;;;;5.03;3.00;;;30.40;40.90;;;-142.21;23.95;112049.66;5114102;28;20569;-73
2022/10/04 13:36:08;;;;;;;2.40;2.20;;;30.80;40.00;;;-142.21;23.95;112049.66;5113913;28;20188;-74
2022/10/04 13:39:08;;;;;;;3.33;2.50;;;31.10;40.30;;;-142.21;24.29;112049.66;5114397;28;20641;-73
2022/10/04 13:42:07;;;;;;;3.50;2.57;;;31.70;38.70;;;-142.21;24.12;112049.66;5115090;28;20184;-74